sensor_id;sensor_type;location;lat;lon;timestamp;pressure;altitude;pressure_sealevel;temperature;humidity
55410;BME280;41279;43.546;16.426;2023-04-01T00:00:09;117236.00;;;-146.77;100.00
55410;BME280;41279;43.546;16.426;2023-04-01T00:02:35;117236.00;;;-146.77;100.00
55410;BME280;41279;43.546;16.426;2023-04-01T00:05:00;117236.00;;;-146.77;100.00
55410;BME280;41279;43.546;16.426;2023-04-01T00:07:27;117236.00;;;-146.77;100.00
55410;BME280;41279;43.546;16.426;2023-04-01T00:09:52;117236.00;;;-146.77;100.00
55410;BME280;41279;43.546;16.426;2023-04-01T00:12:18;117236.00;;;-146.77;100.00
55410;BME280;41279;43.546;16.426;2023-04-01T00:14:43;117236.00;;;-146.77;100.00
55410;BME280;41279;43.546;16.426;2023-04-01T00:17:09;117236.00;;;-146.77;100.00
55410;BME280;41279;43.546;16.426;2023-04-01T00:19:42;117236.00;;;-146.77;100.00
55410;BME280;41279;43.546;16.426;2023-04-01T00:22:14;117236.00;;;-146.77;100.00
55410;BME280;41279;43.546;16.426;2023-04-01T00:24:40;117236.00;;;-146.77;100.00
55410;BME280;41279;43.546;16.426;2023-04-01T00:27:06;117236.00;;;-146.77;100.00
55410;BME280;41279;43.546;16.426;2023-04-01T00:29:33;117236.00;;;-146.77;100.00
55410;BME280;41279;43.546;16.426;2023-04-01T00:31:59;117236.00;;;-146.77;100.00
55410;BME280;41279;43.546;16.426;2023-04-01T00:34:24;117236.00;;;-146.77;100.00
55410;BME280;41279;43.546;16.426;2023-04-01T00:36:51;117236.00;;;-146.77;100.00
55410;BME280;41279;43.546;16.426;2023-04-01T00:39:17;117236.00;;;-146.77;100.00
55410;BME280;41279;43.546;16.426;2023-04-01T00:41:43;117236.00;;;-146.77;100.00
55410;BME280;41279;43.546;16.426;2023-04-01T00:44:22;117236.00;;;-146.77;100.00
55410;BME280;41279;43.546;16.426;2023-04-01T00:46:48;117236.00;;;-146.77;100.00
55410;BME280;41279;43.546;16.426;2023-04-01T00:49:16;117236.00;;;-146.77;100.00
55410;BME280;41279;43.546;16.426;2023-04-01T00:51:45;117236.00;;;-146.77;100.00
55410;BME280;41279;43.546;16.426;2023-04-01T00:54:11;117236.00;;;-146.77;100.00
55410;BME280;41279;43.546;16.426;2023-04-01T00:56:54;117236.00;;;-146.77;100.00
55410;BME280;41279;43.546;16.426;2023-04-01T00:59:27;117236.00;;;-146.77;100.00
55410;BME280;41279;43.546;16.426;2023-04-01T01:01:54;117236.00;;;-146.77;100.00
55410;BME280;41279;43.546;16.426;2023-04-01T01:04:28;117236.00;;;-146.77;100.00
55410;BME280;41279;43.546;16.426;2023-04-01T01:10:09;117236.00;;;-146.77;100.00
55410;BME280;41279;43.546;16.426;2023-04-01T01:15:25;117236.00;;;-146.77;100.00
55410;BME280;41279;43.546;16.426;2023-04-01T01:29:22;117236.00;;;-146.77;100.00
55410;BME280;41279;43.546;16.426;2023-04-01T01:33:03;117236.00;;;-146.77;100.00
55410;BME280;41279;43.546;16.426;2023-04-01T01:37:45;117236.00;;;-146.77;100.00
55410;BME280;41279;43.546;16.426;2023-04-01T01:40:13;117236.00;;;-146.77;100.00
55410;BME280;41279;43.546;16.426;2023-04-01T01:42:50;117236.00;;;-146.77;100.00
55410;BME280;41279;43.546;16.426;2023-04-01T01:45:19;117236.00;;;-146.77;100.00
55410;BME280;41279;43.546;16.426;2023-04-01T01:47:47;117236.00;;;-146.77;100.00
55410;BME280;41279;43.546;16.426;2023-04-01T01:50:15;117236.00;;;-146.77;100.00
55410;BME280;41279;43.546;16.426;2023-04-01T01:52:42;117236.00;;;-146.77;100.00
55410;BME280;41279;43.546;16.426;2023-04-01T01:55:42;117236.00;;;-146.77;100.00
55410;BME280;41279;43.546;16.426;2023-04-01T01:58:28;117236.00;;;-146.77;100.00
55410;BME280;41279;43.546;16.426;2023-04-01T02:01:01;117236.00;;;-146.77;100.00
55410;BME280;41279;43.546;16.426;2023-04-01T02:03:30;117236.00;;;-146.77;100.00
55410;BME280;41279;43.546;16.426;2023-04-01T02:05:59;117236.00;;;-146.77;100.00
55410;BME280;41279;43.546;16.426;2023-04-01T02:08:30;117236.00;;;-146.77;100.00
55410;BME280;41279;43.546;16.426;2023-04-01T02:11:05;117236.00;;;-146.77;100.00
55410;BME280;41279;43.546;16.426;2023-04-01T02:13:52;117236.00;;;-146.77;100.00
55410;BME280;41279;43.546;16.426;2023-04-01T02:19:10;117236.00;;;-146.77;100.00
55410;BME280;41279;43.546;16.426;2023-04-01T02:21:38;117236.00;;;-146.77;100.00
55410;BME280;41279;43.546;16.426;2023-04-01T02:24:08;117236.00;;;-146.77;100.00
55410;BME280;41279;43.546;16.426;2023-04-01T02:26:35;117236.00;;;-146.77;100.00
55410;BME280;41279;43.546;16.426;2023-04-01T02:29:01;117236.00;;;-146.77;100.00
55410;BME280;41279;43.546;16.426;2023-04-01T02:31:29;117236.00;;;-146.77;100.00
55410;BME280;41279;43.546;16.426;2023-04-01T02:33:55;117236.00;;;-146.77;100.00
55410;BME280;41279;43.546;16.426;2023-04-01T02:36:21;117236.00;;;-146.77;100.00
55410;BME280;41279;43.546;16.426;2023-04-01T02:38:47;117236.00;;;-146.77;100.00
55410;BME280;41279;43.546;16.426;2023-04-01T02:41:15;117236.00;;;-146.77;100.00
55410;BME280;41279;43.546;16.426;2023-04-01T02:43:40;117236.00;;;-146.77;100.00
55410;BME280;41279;43.546;16.426;2023-04-01T02:46:06;117236.00;;;-146.77;100.00
55410;BME280;41279;43.546;16.426;2023-04-01T02:48:31;117236.00;;;-146.77;100.00
55410;BME280;41279;43.546;16.426;2023-04-01T02:50:57;117236.00;;;-146.77;100.00
55410;BME280;41279;43.546;16.426;2023-04-01T02:53:22;117236.00;;;-146.77;100.00
55410;BME280;41279;43.546;16.426;2023-04-01T02:55:48;117236.00;;;-146.77;100.00
55410;BME280;41279;43.546;16.426;2023-04-01T02:58:16;117236.00;;;-146.77;100.00
55410;BME280;41279;43.546;16.426;2023-04-01T03:00:42;117236.00;;;-146.77;100.00
55410;BME280;41279;43.546;16.426;2023-04-01T03:03:08;117236.00;;;-146.77;100.00
55410;BME280;41279;43.546;16.426;2023-04-01T03:05:33;117236.00;;;-146.77;100.00
55410;BME280;41279;43.546;16.426;2023-04-01T03:07:59;117236.00;;;-146.77;100.00
55410;BME280;41279;43.546;16.426;2023-04-01T03:10:24;117236.00;;;-146.77;100.00
55410;BME280;41279;43.546;16.426;2023-04-01T03:12:50;117236.00;;;-146.77;100.00
55410;BME280;41279;43.546;16.426;2023-04-01T03:15:15;117236.00;;;-146.77;100.00
55410;BME280;41279;43.546;16.426;2023-04-01T03:17:42;117236.00;;;-146.77;100.00
55410;BME280;41279;43.546;16.426;2023-04-01T03:20:08;117236.00;;;-146.77;100.00
55410;BME280;41279;43.546;16.426;2023-04-01T03:22:36;117236.00;;;-146.77;100.00
55410;BME280;41279;43.546;16.426;2023-04-01T03:25:02;117236.00;;;-146.77;100.00
55410;BME280;41279;43.546;16.426;2023-04-01T03:27:28;117236.00;;;-146.77;100.00
55410;BME280;41279;43.546;16.426;2023-04-01T03:29:53;117236.00;;;-146.77;100.00
55410;BME280;41279;43.546;16.426;2023-04-01T03:32:19;117236.00;;;-146.77;100.00
55410;BME280;41279;43.546;16.426;2023-04-01T03:34:44;117236.00;;;-146.77;100.00
55410;BME280;41279;43.546;16.426;2023-04-01T03:37:10;117236.00;;;-146.77;100.00
55410;BME280;41279;43.546;16.426;2023-04-01T03:39:36;117236.00;;;-146.77;100.00
55410;BME280;41279;43.546;16.426;2023-04-01T03:42:01;117236.00;;;-146.77;100.00
55410;BME280;41279;43.546;16.426;2023-04-01T03:44:30;117236.00;;;-146.77;100.00
55410;BME280;41279;43.546;16.426;2023-04-01T03:46:56;117236.00;;;-146.77;100.00
55410;BME280;41279;43.546;16.426;2023-04-01T03:49:22;117236.00;;;-146.77;100.00
55410;BME280;41279;43.546;16.426;2023-04-01T03:51:47;117236.00;;;-146.77;100.00
55410;BME280;41279;43.546;16.426;2023-04-01T03:54:12;117236.00;;;-146.77;100.00
55410;BME280;41279;43.546;16.426;2023-04-01T03:56:38;116963.38;;;-146.77;100.00
55410;BME280;41279;43.546;16.426;2023-04-01T03:59:06;115738.84;;;-146.77;100.00
55410;BME280;41279;43.546;16.426;2023-04-01T04:01:32;107317.38;;;-146.77;100.00
55410;BME280;41279;43.546;16.426;2023-04-01T04:03:58;104981.97;;;-146.77;100.00
55410;BME280;41279;43.546;16.426;2023-04-01T04:06:25;98443.44;;;-146.77;100.00
55410;BME280;41279;43.546;16.426;2023-04-01T04:08:51;87697.94;;;-146.77;100.00
55410;BME280;41279;43.546;16.426;2023-04-01T04:11:16;116676.53;;;-146.77;100.00
55410;BME280;41279;43.546;16.426;2023-04-01T04:13:42;117236.00;;;-146.77;100.00
55410;BME280;41279;43.546;16.426;2023-04-01T04:16:08;117236.00;;;-146.77;100.00
55410;BME280;41279;43.546;16.426;2023-04-01T04:18:35;117236.00;;;-146.77;100.00
55410;BME280;41279;43.546;16.426;2023-04-01T04:21:01;117236.00;;;-146.77;100.00
55410;BME280;41279;43.546;16.426;2023-04-01T04:23:26;117236.00;;;-146.77;100.00
55410;BME280;41279;43.546;16.426;2023-04-01T04:26:01;117236.00;;;-146.77;100.00
55410;BME280;41279;43.546;16.426;2023-04-01T04:28:27;117236.00;;;-146.77;100.00
55410;BME280;41279;43.546;16.426;2023-04-01T04:30:54;117236.00;;;-146.77;100.00
55410;BME280;41279;43.546;16.426;2023-04-01T04:33:22;117236.00;;;-146.77;100.00
55410;BME280;41279;43.546;16.426;2023-04-01T04:35:47;117236.00;;;-146.77;100.00
55410;BME280;41279;43.546;16.426;2023-04-01T04:38:13;117236.00;;;-146.77;100.00
55410;BME280;41279;43.546;16.426;2023-04-01T04:40:39;117236.00;;;-146.77;100.00
55410;BME280;41279;43.546;16.426;2023-04-01T04:43:05;117236.00;;;-146.77;100.00
55410;BME280;41279;43.546;16.426;2023-04-01T04:45:30;117236.00;;;-146.77;100.00
55410;BME280;41279;43.546;16.426;2023-04-01T04:47:56;117236.00;;;-146.77;100.00
55410;BME280;41279;43.546;16.426;2023-04-01T04:50:23;117236.00;;;-146.77;100.00
55410;BME280;41279;43.546;16.426;2023-04-01T04:52:48;117236.00;;;-146.77;100.00
55410;BME280;41279;43.546;16.426;2023-04-01T04:55:14;117236.00;;;-146.77;100.00
55410;BME280;41279;43.546;16.426;2023-04-01T04:57:40;117236.00;;;-146.77;100.00
55410;BME280;41279;43.546;16.426;2023-04-01T05:00:06;117236.00;;;-146.77;100.00
55410;BME280;41279;43.546;16.426;2023-04-01T05:02:33;117236.00;;;-146.77;100.00
55410;BME280;41279;43.546;16.426;2023-04-01T05:04:58;117236.00;;;-146.77;100.00
55410;BME280;41279;43.546;16.426;2023-04-01T05:07:24;117236.00;;;-146.77;100.00
55410;BME280;41279;43.546;16.426;2023-04-01T05:09:49;117236.00;;;-146.77;100.00
55410;BME280;41279;43.546;16.426;2023-04-01T05:12:15;117236.00;;;-146.77;100.00
55410;BME280;41279;43.546;16.426;2023-04-01T05:14:40;117236.00;;;-146.77;100.00
55410;BME280;41279;43.546;16.426;2023-04-01T05:17:10;117236.00;;;-146.77;100.00
55410;BME280;41279;43.546;16.426;2023-04-01T05:19:42;117236.00;;;-146.77;100.00
55410;BME280;41279;43.546;16.426;2023-04-01T05:22:14;117236.00;;;-146.77;100.00
55410;BME280;41279;43.546;16.426;2023-04-01T05:24:40;117236.00;;;-146.77;100.00
55410;BME280;41279;43.546;16.426;2023-04-01T05:27:05;117236.00;;;-146.77;100.00
55410;BME280;41279;43.546;16.426;2023-04-01T05:29:31;117236.00;;;-146.77;100.00
55410;BME280;41279;43.546;16.426;2023-04-01T05:31:56;117236.00;;;-146.77;100.00
55410;BME280;41279;43.546;16.426;2023-04-01T05:34:21;117236.00;;;-146.77;100.00
55410;BME280;41279;43.546;16.426;2023-04-01T05:36:47;117236.00;;;-146.77;100.00
55410;BME280;41279;43.546;16.426;2023-04-01T05:39:12;117236.00;;;-146.77;100.00
55410;BME280;41279;43.546;16.426;2023-04-01T05:41:38;117236.00;;;-146.77;100.00
55410;BME280;41279;43.546;16.426;2023-04-01T05:44:04;117236.00;;;-146.77;100.00
55410;BME280;41279;43.546;16.426;2023-04-01T05:46:30;117236.00;;;-146.77;100.00
55410;BME280;41279;43.546;16.426;2023-04-01T05:48:56;117236.00;;;-146.77;100.00
55410;BME280;41279;43.546;16.426;2023-04-01T05:51:22;117236.00;;;-146.77;100.00
55410;BME280;41279;43.546;16.426;2023-04-01T05:53:48;117236.00;;;-146.77;100.00
55410;BME280;41279;43.546;16.426;2023-04-01T05:56:13;117236.00;;;-146.77;100.00
55410;BME280;41279;43.546;16.426;2023-04-01T05:58:39;117236.00;;;-146.77;100.00
55410;BME280;41279;43.546;16.426;2023-04-01T06:01:10;117236.00;;;-146.77;100.00
55410;BME280;41279;43.546;16.426;2023-04-01T06:03:36;117236.00;;;-146.77;100.00
55410;BME280;41279;43.546;16.426;2023-04-01T06:06:01;117236.00;;;-146.77;100.00
55410;BME280;41279;43.546;16.426;2023-04-01T06:08:27;117236.00;;;-146.77;100.00
55410;BME280;41279;43.546;16.426;2023-04-01T06:13:55;117236.00;;;-146.77;100.00
55410;BME280;41279;43.546;16.426;2023-04-01T06:19:11;117236.00;;;-146.77;100.00
55410;BME280;41279;43.546;16.426;2023-04-01T06:22:01;117236.00;;;-146.77;100.00
55410;BME280;41279;43.546;16.426;2023-04-01T06:27:58;117236.00;;;-146.77;100.00
55410;BME280;41279;43.546;16.426;2023-04-01T06:39:26;117236.00;;;-146.77;100.00
55410;BME280;41279;43.546;16.426;2023-04-01T06:53:21;117236.00;;;-146.77;100.00
55410;BME280;41279;43.546;16.426;2023-04-01T06:58:24;117236.00;;;-146.77;100.00
55410;BME280;41279;43.546;16.426;2023-04-01T07:00:54;117236.00;;;-146.77;100.00
55410;BME280;41279;43.546;16.426;2023-04-01T07:03:41;117236.00;;;-146.77;100.00
55410;BME280;41279;43.546;16.426;2023-04-01T07:06:16;117236.00;;;-146.77;100.00
55410;BME280;41279;43.546;16.426;2023-04-01T07:08:45;117236.00;;;-146.77;100.00
55410;BME280;41279;43.546;16.426;2023-04-01T07:11:30;117236.00;;;-146.77;100.00
55410;BME280;41279;43.546;16.426;2023-04-01T07:14:02;117236.00;;;-146.77;100.00
55410;BME280;41279;43.546;16.426;2023-04-01T07:16:30;117236.00;;;-146.77;100.00
55410;BME280;41279;43.546;16.426;2023-04-01T07:21:56;117236.00;;;-146.77;100.00
55410;BME280;41279;43.546;16.426;2023-04-01T07:24:36;117236.00;;;-146.77;100.00
55410;BME280;41279;43.546;16.426;2023-04-01T07:27:05;117236.00;;;-146.77;100.00
55410;BME280;41279;43.546;16.426;2023-04-01T07:29:34;117236.00;;;-146.77;100.00
55410;BME280;41279;43.546;16.426;2023-04-01T07:37:42;117236.00;;;-146.77;100.00
55410;BME280;41279;43.546;16.426;2023-04-01T07:40:24;117236.00;;;-146.77;100.00
55410;BME280;41279;43.546;16.426;2023-04-01T07:43:22;117236.00;;;-146.77;100.00
55410;BME280;41279;43.546;16.426;2023-04-01T07:46:11;117236.00;;;-146.77;100.00
55410;BME280;41279;43.546;16.426;2023-04-01T07:48:54;117236.00;;;-146.77;100.00
55410;BME280;41279;43.546;16.426;2023-04-01T07:51:29;117236.00;;;-146.77;100.00
55410;BME280;41279;43.546;16.426;2023-04-01T08:07:24;115671.72;;;-146.77;100.00
55410;BME280;41279;43.546;16.426;2023-04-01T08:09:58;115671.72;;;-146.77;100.00
55410;BME280;41279;43.546;16.426;2023-04-01T08:15:23;115411.41;;;-146.77;100.00
55410;BME280;41279;43.546;16.426;2023-04-01T08:20:51;113849.88;;;-146.77;100.00
55410;BME280;41279;43.546;16.426;2023-04-01T08:23:33;113589.66;;;-146.77;100.00
55410;BME280;41279;43.546;16.426;2023-04-01T08:29:15;114630.56;;;-146.77;100.00
55410;BME280;41279;43.546;16.426;2023-04-01T08:31:54;116452.78;;;-146.77;100.00
55410;BME280;41279;43.546;16.426;2023-04-01T08:34:24;117236.00;;;-146.77;100.00
55410;BME280;41279;43.546;16.426;2023-04-01T08:37:00;117233.97;;;-146.77;100.00
55410;BME280;41279;43.546;16.426;2023-04-01T08:39:32;117233.97;;;-146.77;100.00
55410;BME280;41279;43.546;16.426;2023-04-01T08:42:36;117236.00;;;-146.77;100.00
55410;BME280;41279;43.546;16.426;2023-04-01T08:50:40;114630.56;;;-146.77;100.00
55410;BME280;41279;43.546;16.426;2023-04-01T09:18:38;108129.31;;;-146.77;100.00
55410;BME280;41279;43.546;16.426;2023-04-01T09:21:23;103973.94;;;-146.77;100.00
55410;BME280;41279;43.546;16.426;2023-04-01T09:24:14;108649.03;;;-146.77;100.00
55410;BME280;41279;43.546;16.426;2023-04-01T09:27:03;108389.16;;;-146.77;100.00
55410;BME280;41279;43.546;16.426;2023-04-01T09:32:19;95157.91;;;-146.77;100.00
55410;BME280;41279;43.546;16.426;2023-04-01T09:34:59;98785.72;;;-146.77;100.00
55410;BME280;41279;43.546;16.426;2023-04-01T09:37:45;98526.47;;;-146.77;100.00
55410;BME280;41279;43.546;16.426;2023-04-01T09:40:24;93863.03;;;-146.77;100.00
55410;BME280;41279;43.546;16.426;2023-04-01T09:46:04;75263.06;;;-146.77;100.00
55410;BME280;41279;43.546;16.426;2023-04-01T09:51:35;82486.16;;;-146.77;100.00
55410;BME280;41279;43.546;16.426;2023-04-01T10:04:50;79388.97;;;-146.77;100.00
55410;BME280;41279;43.546;16.426;2023-04-01T10:16:08;73716.94;;;-146.77;100.00
55410;BME280;41279;43.546;16.426;2023-04-01T10:21:57;64047.19;;;-146.77;100.00
55410;BME280;41279;43.546;16.426;2023-04-01T10:27:37;66083.72;;;-146.77;100.00
55410;BME280;41279;43.546;16.426;2023-04-01T11:37:50;52746.66;;;-146.77;85.22
55410;BME280;41279;43.546;16.426;2023-04-01T11:40:23;52654.56;;;-146.77;76.71
55410;BME280;41279;43.546;16.426;2023-04-01T11:43:06;52674.59;;;-146.77;77.05
55410;BME280;41279;43.546;16.426;2023-04-01T11:56:50;52690.59;;;-146.77;81.05
55410;BME280;41279;43.546;16.426;2023-04-01T12:02:08;52652.56;;;-146.77;66.62
55410;BME280;41279;43.546;16.426;2023-04-01T12:13:45;54873.59;;;-146.77;100.00
55410;BME280;41279;43.546;16.426;2023-04-01T12:25:04;53029.00;;;-146.77;98.28
55410;BME280;41279;43.546;16.426;2023-04-01T12:27:39;53735.88;;;-146.77;100.00
55410;BME280;41279;43.546;16.426;2023-04-01T12:33:15;53475.53;;;-146.77;100.00
55410;BME280;41279;43.546;16.426;2023-04-01T12:44:29;53347.38;;;-146.77;100.00
55410;BME280;41279;43.546;16.426;2023-04-01T12:58:36;52946.91;;;-146.77;90.48
55410;BME280;41279;43.546;16.426;2023-04-01T13:14:19;53711.84;;;-146.77;100.00
55410;BME280;41279;43.546;16.426;2023-04-01T13:20:06;52858.78;;;-146.77;85.04
55410;BME280;41279;43.546;16.426;2023-04-01T13:28:20;53087.06;;;-146.77;91.50
55410;BME280;41279;43.546;16.426;2023-04-01T13:37:09;53395.44;;;-146.77;100.00
55410;BME280;41279;43.546;16.426;2023-04-01T13:42:38;54641.22;;;-146.77;100.00
55410;BME280;41279;43.546;16.426;2023-04-01T13:48:39;64356.41;;;-146.77;100.00
55410;BME280;41279;43.546;16.426;2023-04-01T14:05:09;66965.75;;;-146.77;100.00
55410;BME280;41279;43.546;16.426;2023-04-01T14:08:00;60871.94;;;-146.77;100.00
55410;BME280;41279;43.546;16.426;2023-04-01T14:16:06;100860.22;;;-146.77;100.00
55410;BME280;41279;43.546;16.426;2023-04-01T14:19:29;103195.28;;;-146.77;100.00
55410;BME280;41279;43.546;16.426;2023-04-01T14:30:20;98526.47;;;-146.77;100.00
55410;BME280;41279;43.546;16.426;2023-04-01T14:33:33;95416.94;;;-146.77;100.00
55410;BME280;41279;43.546;16.426;2023-04-01T14:42:03;93345.22;;;-146.77;100.00
55410;BME280;41279;43.546;16.426;2023-04-01T14:44:57;105791.41;;;-146.77;100.00
55410;BME280;41279;43.546;16.426;2023-04-01T14:47:43;102416.78;;;-146.77;100.00
55410;BME280;41279;43.546;16.426;2023-04-01T14:50:17;102416.78;;;-146.77;100.00
55410;BME280;41279;43.546;16.426;2023-04-01T14:55:48;99822.84;;;-146.77;100.00
55410;BME280;41279;43.546;16.426;2023-04-01T14:58:17;101897.88;;;-146.77;100.00
55410;BME280;41279;43.546;16.426;2023-04-01T15:03:38;102935.78;;;-146.77;100.00
55410;BME280;41279;43.546;16.426;2023-04-01T15:09:14;105272.03;;;-146.77;100.00
55410;BME280;41279;43.546;16.426;2023-04-01T15:11:47;106051.09;;;-146.77;100.00
55410;BME280;41279;43.546;16.426;2023-04-01T15:16:55;105272.03;;;-146.77;100.00
55410;BME280;41279;43.546;16.426;2023-04-01T15:39:49;96453.19;;;-146.77;100.00
55410;BME280;41279;43.546;16.426;2023-04-01T15:42:42;103195.28;;;-146.77;100.00
55410;BME280;41279;43.546;16.426;2023-04-01T15:51:20;69448.09;;;-146.77;100.00
55410;BME280;41279;43.546;16.426;2023-04-01T15:57:09;65919.00;;;-146.77;100.00
55410;BME280;41279;43.546;16.426;2023-04-01T16:08:01;63326.41;;;-146.77;100.00
55410;BME280;41279;43.546;16.426;2023-04-01T16:10:54;64113.44;;;-146.77;100.00
55410;BME280;41279;43.546;16.426;2023-04-01T16:13:41;61546.09;;;-146.77;100.00
55410;BME280;41279;43.546;16.426;2023-04-01T16:16:31;61897.28;;;-146.77;100.00
55410;BME280;41279;43.546;16.426;2023-04-01T16:26:53;53115.09;;;-146.77;100.00
55410;BME280;41279;43.546;16.426;2023-04-01T16:34:56;52694.63;;;-146.77;86.93
55410;BME280;41279;43.546;16.426;2023-04-01T16:37:41;52722.66;;;-146.77;88.16
55410;BME280;41279;43.546;16.426;2023-04-01T16:40:16;52700.63;;;-146.77;88.22
55410;BME280;41279;43.546;16.426;2023-04-01T16:43:11;52736.66;;;-146.77;89.46
55410;BME280;41279;43.546;16.426;2023-04-01T16:45:46;52782.72;;;-146.77;91.68
55410;BME280;41279;43.546;16.426;2023-04-01T16:48:22;52742.66;;;-146.77;91.74
55410;BME280;41279;43.546;16.426;2023-04-01T16:51:00;52784.72;;;-146.77;91.20
55410;BME280;41279;43.546;16.426;2023-04-01T16:53:35;52746.66;;;-146.77;90.31
55410;BME280;41279;43.546;16.426;2023-04-01T16:58:40;52816.75;;;-146.77;93.90
55410;BME280;41279;43.546;16.426;2023-04-01T17:01:24;52820.75;;;-146.77;94.44
55410;BME280;41279;43.546;16.426;2023-04-01T17:04:10;52916.84;;;-146.77;98.14
55410;BME280;41279;43.546;16.426;2023-04-01T17:17:14;53125.09;;;-146.77;100.00
55410;BME280;41279;43.546;16.426;2023-04-01T17:25:08;52952.91;;;-146.77;100.00
55410;BME280;41279;43.546;16.426;2023-04-01T17:28:11;52924.88;;;-146.77;100.00
55410;BME280;41279;43.546;16.426;2023-04-01T17:30:39;52916.84;;;-146.77;100.00
55410;BME280;41279;43.546;16.426;2023-04-01T17:55:15;52814.75;;;-146.77;98.07
55410;BME280;41279;43.546;16.426;2023-04-01T18:17:25;52790.72;;;-146.77;94.89
55410;BME280;41279;43.546;16.426;2023-04-01T18:20:02;52846.78;;;-146.77;97.64
55410;BME280;41279;43.546;16.426;2023-04-01T18:25:21;52796.72;;;-146.77;95.06
55410;BME280;41279;43.546;16.426;2023-04-01T18:28:11;52786.72;;;-146.77;93.34
55410;BME280;41279;43.546;16.426;2023-04-01T18:30:40;52720.66;;;-146.77;90.86
55410;BME280;41279;43.546;16.426;2023-04-01T18:44:47;52786.72;;;-146.77;93.69
55410;BME280;41279;43.546;16.426;2023-04-01T18:46:52;52766.69;;;-146.77;93.56
55410;BME280;41279;43.546;16.426;2023-04-01T18:52:37;52754.69;;;-146.77;92.69
55410;BME280;41279;43.546;16.426;2023-04-01T18:57:49;52906.84;;;-146.77;98.34
55410;BME280;41279;43.546;16.426;2023-04-01T19:00:22;52820.75;;;-146.77;97.21
55410;BME280;41279;43.546;16.426;2023-04-01T19:05:28;52828.75;;;-146.77;97.09
55410;BME280;41279;43.546;16.426;2023-04-01T19:08:14;52932.88;;;-146.77;100.00
55410;BME280;41279;43.546;16.426;2023-04-01T19:11:28;52866.81;;;-146.77;100.00
55410;BME280;41279;43.546;16.426;2023-04-01T19:27:50;53037.00;;;-146.77;100.00
55410;BME280;41279;43.546;16.426;2023-04-01T19:30:32;52934.88;;;-146.77;100.00
55410;BME280;41279;43.546;16.426;2023-04-01T19:33:33;52916.84;;;-146.77;100.00
55410;BME280;41279;43.546;16.426;2023-04-01T19:36:07;55260.22;;;-146.77;100.00
55410;BME280;41279;43.546;16.426;2023-04-01T19:55:03;62431.13;;;-146.77;100.00
55410;BME280;41279;43.546;16.426;2023-04-01T20:00:22;58260.56;;;-146.77;100.00
55410;BME280;41279;43.546;16.426;2023-04-01T20:02:58;56576.75;;;-146.77;100.00
55410;BME280;41279;43.546;16.426;2023-04-01T20:05:46;56504.59;;;-146.77;100.00
55410;BME280;41279;43.546;16.426;2023-04-01T20:08:29;56256.09;;;-146.77;100.00
55410;BME280;41279;43.546;16.426;2023-04-01T20:11:06;56793.19;;;-146.77;100.00
55410;BME280;41279;43.546;16.426;2023-04-01T20:13:42;56729.06;;;-146.77;100.00
55410;BME280;41279;43.546;16.426;2023-04-01T20:16:12;63737.97;;;-146.77;100.00
55410;BME280;41279;43.546;16.426;2023-04-01T20:18:51;64221.88;;;-146.77;100.00
55410;BME280;41279;43.546;16.426;2023-04-01T20:21:27;60950.19;;;-146.77;100.00
55410;BME280;41279;43.546;16.426;2023-04-01T20:24:06;60855.88;;;-146.77;100.00
55410;BME280;41279;43.546;16.426;2023-04-01T20:26:59;59315.34;;;-146.77;100.00
55410;BME280;41279;43.546;16.426;2023-04-01T20:29:37;58609.47;;;-146.77;100.00
55410;BME280;41279;43.546;16.426;2023-04-01T20:35:19;60035.38;;;-146.77;100.00
55410;BME280;41279;43.546;16.426;2023-04-01T20:43:42;64071.28;;;-146.77;100.00
55410;BME280;41279;43.546;16.426;2023-04-01T20:52:25;64165.66;;;-146.77;100.00
55410;BME280;41279;43.546;16.426;2023-04-01T20:55:32;64826.31;;;-146.77;100.00
55410;BME280;41279;43.546;16.426;2023-04-01T21:03:48;84810.66;;;-146.77;100.00
55410;BME280;41279;43.546;16.426;2023-04-01T21:09:20;89463.63;;;-146.77;100.00
55410;BME280;41279;43.546;16.426;2023-04-01T21:15:03;84293.97;;;-146.77;100.00
55410;BME280;41279;43.546;16.426;2023-04-01T21:29:08;63719.91;;;-146.77;100.00
55410;BME280;41279;43.546;16.426;2023-04-01T21:43:21;58765.88;;;-146.77;100.00
55410;BME280;41279;43.546;16.426;2023-04-01T22:21:00;93604.13;;;-146.77;100.00
55410;BME280;41279;43.546;16.426;2023-04-01T22:23:44;91015.81;;;-146.77;100.00
55410;BME280;41279;43.546;16.426;2023-04-01T22:31:53;88946.38;;;-146.77;100.00
55410;BME280;41279;43.546;16.426;2023-04-01T22:37:03;86619.50;;;-146.77;100.00
55410;BME280;41279;43.546;16.426;2023-04-01T22:50:13;87912.03;;;-146.77;100.00
55410;BME280;41279;43.546;16.426;2023-04-01T22:52:43;87912.03;;;-146.77;100.00
55410;BME280;41279;43.546;16.426;2023-04-01T22:55:29;85069.00;;;-146.77;100.00
55410;BME280;41279;43.546;16.426;2023-04-01T22:58:01;84035.69;;;-146.77;100.00
55410;BME280;41279;43.546;16.426;2023-04-01T23:00:41;82486.16;;;-146.77;100.00
55410;BME280;41279;43.546;16.426;2023-04-01T23:03:22;82227.97;;;-146.77;100.00
55410;BME280;41279;43.546;16.426;2023-04-01T23:05:53;79905.00;;;-146.77;100.00
55410;BME280;41279;43.546;16.426;2023-04-01T23:10:58;87653.50;;;-146.77;100.00